Time;durP1;ratioP1;P1;durP2;ratioP2;P2;SDS_P1;SDS_P2;PMS_P1;PMS_P2;Temp;Humidity;BMP_temperature;BMP_pressure;BME280_temperature;BME280_humidity;BME280_pressure;Samples;Min_cycle;Max_cycle;Signal;HPM_P1;HPM_P2
2020/12/30 00:01:07;;;;;;;46.45;36.92;;;1.70;92.40;;;;;;5093577;28;20028;-78
2020/12/30 00:03:34;;;;;;;48.85;35.70;;;1.70;92.40;;;;;;5093325;28;20076;-82
2020/12/30 00:06:00;;;;;;;49.13;37.17;;;1.60;92.40;;;;;;5079915;28;20035;-77
2020/12/30 00:08:26;;;;;;;48.17;36.85;;;1.60;92.50;;;;;;5073250;28;20028;-77
2020/12/30 00:10:52;;;;;;;57.83;40.85;;;1.60;92.60;;;;;;5095472;28;20051;-77
2020/12/30 00:13:18;;;;;;;55.63;38.42;;;1.50;92.60;;;;;;5091574;28;20122;-80
2020/12/30 00:15:44;;;;;;;56.75;40.05;;;1.50;92.70;;;;;;5100852;28;20046;-77
2020/12/30 00:18:09;;;;;;;53.83;38.65;;;1.50;92.80;;;;;;5094216;28;20445;-77
2020/12/30 00:20:35;;;;;;;53.55;37.80;;;1.50;92.70;;;;;;5099762;28;20028;-78
2020/12/30 00:23:01;;;;;;;48.78;37.22;;;1.50;92.80;;;;;;5095863;28;20035;-77
2020/12/30 00:25:27;;;;;;;49.47;37.90;;;1.50;92.80;;;;;;5097744;28;20015;-77
2020/12/30 00:27:53;;;;;;;54.30;39.90;;;1.40;92.80;;;;;;5094589;28;20032;-78
2020/12/30 00:30:19;;;;;;;49.80;37.05;;;1.40;92.80;;;;;;5077987;28;20027;-78
2020/12/30 00:32:46;;;;;;;51.42;38.33;;;1.40;92.90;;;;;;5097503;28;20040;-78
2020/12/30 00:35:14;;;;;;;51.75;38.83;;;1.40;93.00;;;;;;5079055;28;20178;-81
2020/12/30 00:37:40;;;;;;;52.20;37.80;;;1.50;93.10;;;;;;5085890;28;20494;-79
2020/12/30 00:40:06;;;;;;;51.72;37.42;;;1.60;93.20;;;;;;5097038;28;20031;-78
2020/12/30 00:42:36;;;;;;;48.55;37.28;;;1.60;93.20;;;;;;5078829;28;20386;-80
2020/12/30 00:45:04;;;;;;;52.58;37.08;;;1.70;93.20;;;;;;5076372;28;20122;-79
2020/12/30 00:47:29;;;;;;;50.70;36.42;;;1.70;93.10;;;;;;5087477;28;20507;-77
2020/12/30 00:49:55;;;;;;;48.15;35.90;;;1.80;93.10;;;;;;5094661;28;20119;-77
2020/12/30 00:52:21;;;;;;;49.58;35.40;;;1.80;93.00;;;;;;5083118;28;20070;-77
2020/12/30 00:54:46;;;;;;;47.97;36.38;;;1.90;93.00;;;;;;5078896;28;20023;-77
2020/12/30 00:57:12;;;;;;;52.67;35.63;;;1.90;92.90;;;;;;5091949;28;20108;-79
2020/12/30 00:59:41;;;;;;;49.05;34.58;;;1.90;92.90;;;;;;5075743;28;20028;-76
2020/12/30 01:02:07;;;;;;;45.60;33.40;;;1.90;92.80;;;;;;5095453;28;20178;-77
2020/12/30 01:04:32;;;;;;;46.75;33.53;;;1.90;92.80;;;;;;5100475;28;20043;-77
2020/12/30 01:06:58;;;;;;;47.35;32.58;;;1.90;92.90;;;;;;5073380;28;20031;-78
2020/12/30 01:09:26;;;;;;;47.85;33.47;;;1.90;92.80;;;;;;5079181;28;20028;-79
2020/12/30 01:11:52;;;;;;;45.00;32.30;;;1.90;92.80;;;;;;5080237;28;20031;-79
2020/12/30 01:14:18;;;;;;;43.88;32.25;;;1.90;92.80;;;;;;5093433;28;20043;-78
2020/12/30 01:16:53;;;;;;;43.25;31.27;;;1.90;92.80;;;;;;5099860;28;20024;-78
2020/12/30 01:19:19;;;;;;;;;;;1.90;92.80;;;;;;5090917;28;20362;-78
2020/12/30 01:21:44;;;;;;;44.25;30.77;;;1.90;92.80;;;;;;5083427;28;19912;-78
2020/12/30 01:24:10;;;;;;;39.90;29.83;;;1.90;92.70;;;;;;5094858;28;20032;-79
2020/12/30 01:26:37;;;;;;;38.92;28.25;;;1.90;92.70;;;;;;5097414;28;20136;-79
2020/12/30 01:29:04;;;;;;;40.88;27.38;;;1.90;92.70;;;;;;5091657;28;20020;-81
2020/12/30 01:31:31;;;;;;;39.85;28.52;;;1.90;92.70;;;;;;5083667;28;20162;-79
2020/12/30 01:33:56;;;;;;;39.58;28.52;;;1.90;92.80;;;;;;5077665;28;20059;-81
2020/12/30 01:36:23;;;;;;;37.70;28.80;;;1.90;92.80;;;;;;5089849;28;20024;-78
2020/12/30 01:38:49;;;;;;;37.53;27.13;;;1.80;92.80;;;;;;5077542;28;20035;-79
2020/12/30 01:41:15;;;;;;;40.35;28.05;;;1.70;92.80;;;;;;5096377;28;20172;-80
2020/12/30 01:43:41;;;;;;;38.05;27.45;;;1.70;92.80;;;;;;5083506;28;20031;-80
2020/12/30 01:46:07;;;;;;;41.30;27.48;;;1.70;92.80;;;;;;5077279;28;20036;-79
2020/12/30 01:48:34;;;;;;;38.90;27.55;;;1.70;92.80;;;;;;5097903;28;20032;-78
2020/12/30 01:51:01;;;;;;;38.33;26.23;;;1.60;92.80;;;;;;5105707;28;20028;-79
2020/12/30 01:53:26;;;;;;;36.75;26.60;;;1.60;92.80;;;;;;5097994;28;20043;-79
2020/12/30 01:55:54;;;;;;;36.25;25.88;;;1.60;92.90;;;;;;5104068;28;20445;-78
2020/12/30 01:58:20;;;;;;;35.42;26.45;;;1.60;92.90;;;;;;5102018;28;20027;-78
2020/12/30 02:00:48;;;;;;;37.28;25.85;;;1.60;92.90;;;;;;5102488;28;20032;-78
2020/12/30 02:03:15;;;;;;;35.08;26.80;;;1.60;92.90;;;;;;5091625;28;20031;-80
2020/12/30 02:05:42;;;;;;;37.78;25.92;;;1.60;92.90;;;;;;5091045;28;20039;-79
2020/12/30 02:08:08;;;;;;;36.17;26.15;;;1.60;93.00;;;;;;5095169;28;20028;-78
2020/12/30 02:10:34;;;;;;;36.38;26.75;;;1.60;93.00;;;;;;5090836;28;20466;-78
2020/12/30 02:13:00;;;;;;;39.08;26.50;;;1.70;93.00;;;;;;5091607;28;20043;-78
2020/12/30 02:15:27;;;;;;;36.35;26.55;;;1.70;92.90;;;;;;5094693;28;20118;-80
2020/12/30 02:17:53;;;;;;;38.88;26.48;;;1.70;92.80;;;;;;5093111;28;20024;-78
2020/12/30 02:20:19;;;;;;;37.78;27.63;;;1.70;92.60;;;;;;5090655;28;20028;-77
2020/12/30 02:22:54;;;;;;;35.65;26.00;;;1.80;92.60;;;;;;5090227;28;20032;-77
2020/12/30 02:25:20;;;;;;;41.08;27.02;;;1.80;92.40;;;;;;5093286;28;20082;-78
2020/12/30 02:27:46;;;;;;;39.28;26.15;;;1.80;92.20;;;;;;5099272;28;20435;-78
2020/12/30 02:30:13;;;;;;;41.88;28.25;;;1.70;92.10;;;;;;5092868;28;20036;-78
2020/12/30 02:32:39;;;;;;;37.92;27.27;;;1.70;92.10;;;;;;5077135;28;20035;-78
2020/12/30 02:35:05;;;;;;;34.65;24.50;;;1.80;92.30;;;;;;5090903;28;20477;-77
2020/12/30 02:37:30;;;;;;;36.38;24.65;;;1.80;92.20;;;;;;5067581;28;756700;-78
2020/12/30 02:39:56;;;;;;;35.97;25.10;;;1.80;92.20;;;;;;5083542;28;20035;-81
2020/12/30 02:42:22;;;;;;;38.60;25.67;;;1.80;92.30;;;;;;5096288;28;20071;-78
2020/12/30 02:44:51;;;;;;;36.83;25.60;;;1.80;92.20;;;;;;5089195;28;20375;-77
2020/12/30 02:47:17;;;;;;;38.22;25.67;;;1.80;92.20;;;;;;5088200;28;20063;-78
2020/12/30 02:49:42;;;;;;;33.92;24.05;;;1.90;92.10;;;;;;5095782;28;20075;-78
2020/12/30 02:52:08;;;;;;;34.50;23.77;;;1.90;91.90;;;;;;5076284;28;20036;-81
2020/12/30 02:54:34;;;;;;;31.98;23.30;;;1.90;91.80;;;;;;5095228;28;20040;-78
2020/12/30 02:56:59;;;;;;;33.72;22.33;;;1.80;91.70;;;;;;5077450;28;20068;-78
2020/12/30 02:59:25;;;;;;;34.35;23.00;;;1.80;91.70;;;;;;5093172;28;20523;-78
2020/12/30 03:01:50;;;;;;;29.77;21.90;;;1.70;91.80;;;;;;5098117;28;20032;-78
2020/12/30 03:04:16;;;;;;;31.25;21.55;;;1.70;91.80;;;;;;5093475;28;20035;-78
2020/12/30 03:06:42;;;;;;;31.02;22.45;;;1.70;91.90;;;;;;5094934;28;20047;-78
2020/12/30 03:09:07;;;;;;;31.17;22.77;;;1.70;91.80;;;;;;5087600;28;20115;-78
2020/12/30 03:11:33;;;;;;;28.67;21.95;;;1.70;91.90;;;;;;5098978;28;20046;-78
2020/12/30 03:13:58;;;;;;;33.70;23.60;;;1.70;91.90;;;;;;5092277;28;20101;-78
2020/12/30 03:16:24;;;;;;;35.03;25.08;;;1.70;91.90;;;;;;5079574;28;20051;-79
2020/12/30 03:18:50;;;;;;;34.20;24.05;;;1.60;91.80;;;;;;5077088;28;20115;-79
2020/12/30 03:21:15;;;;;;;36.47;24.85;;;1.60;91.80;;;;;;5069990;28;20036;-79
2020/12/30 03:23:41;;;;;;;32.63;23.65;;;1.50;91.70;;;;;;5076780;28;20470;-78
2020/12/30 03:26:07;;;;;;;37.30;24.92;;;1.40;91.70;;;;;;5096379;28;20036;-77
2020/12/30 03:28:32;;;;;;;33.55;24.48;;;1.40;91.70;;;;;;5102159;28;20484;-79
2020/12/30 03:30:58;;;;;;;32.60;23.65;;;1.40;91.70;;;;;;5079044;28;20028;-78
2020/12/30 03:33:23;;;;;;;32.92;23.73;;;1.30;91.80;;;;;;5096270;28;20461;-79
2020/12/30 03:35:49;;;;;;;34.20;24.27;;;1.20;91.80;;;;;;5086111;28;20055;-78
2020/12/30 03:38:15;;;;;;;30.15;23.50;;;1.30;92.00;;;;;;5095563;28;20040;-77
2020/12/30 03:40:40;;;;;;;32.20;23.38;;;1.30;92.00;;;;;;5086646;28;20051;-77
2020/12/30 03:43:06;;;;;;;29.80;22.70;;;1.30;92.10;;;;;;5084825;28;20035;-78
2020/12/30 03:45:31;;;;;;;33.10;24.17;;;1.30;92.10;;;;;;5098719;28;20831;-79
2020/12/30 03:47:58;;;;;;;33.63;24.35;;;1.30;92.10;;;;;;5099628;28;21027;-77
2020/12/30 03:50:23;;;;;;;34.58;24.40;;;1.30;92.10;;;;;;5087912;28;20127;-78
2020/12/30 03:52:49;;;;;;;34.05;24.73;;;1.30;92.20;;;;;;5087906;28;20119;-77
2020/12/30 03:55:14;;;;;;;35.70;25.17;;;1.30;92.20;;;;;;5090889;28;20036;-78
2020/12/30 03:57:40;;;;;;;35.70;24.10;;;1.30;92.20;;;;;;5099103;28;20076;-78
2020/12/30 04:00:06;;;;;;;31.73;22.77;;;1.30;92.20;;;;;;5071884;28;20032;-77
2020/12/30 04:02:32;;;;;;;35.85;24.48;;;1.30;92.30;;;;;;5093848;28;20501;-78
2020/12/30 04:04:57;;;;;;;32.90;23.40;;;1.30;92.40;;;;;;5069409;28;20028;-78
2020/12/30 04:07:23;;;;;;;34.55;23.40;;;1.20;92.50;;;;;;5092518;28;20086;-77
2020/12/30 04:09:48;;;;;;;54.08;25.63;;;1.30;92.50;;;;;;5075909;28;20042;-78
2020/12/30 04:12:14;;;;;;;35.65;25.83;;;1.40;92.70;;;;;;5089924;28;20450;-77
2020/12/30 04:14:40;;;;;;;36.53;25.02;;;1.50;92.80;;;;;;5073885;28;20036;-77
2020/12/30 04:17:05;;;;;;;34.63;24.42;;;1.50;92.70;;;;;;5090065;28;20119;-78
2020/12/30 04:19:31;;;;;;;37.40;23.85;;;1.60;92.80;;;;;;5085857;28;20085;-78
2020/12/30 04:21:56;;;;;;;39.08;26.70;;;1.60;92.80;;;;;;5087724;28;20024;-80
2020/12/30 04:24:22;;;;;;;34.55;24.58;;;1.70;92.70;;;;;;5087169;28;20449;-78
2020/12/30 04:26:47;;;;;;;37.70;25.52;;;1.70;92.60;;;;;;5092992;28;20077;-79
2020/12/30 04:29:13;;;;;;;35.45;23.45;;;1.70;92.50;;;;;;5087207;28;20036;-78
2020/12/30 04:31:39;;;;;;;35.85;23.80;;;1.70;92.40;;;;;;5076996;28;20040;-78
2020/12/30 04:34:05;;;;;;;36.30;24.25;;;1.70;92.50;;;;;;5092550;28;20044;-78
2020/12/30 04:36:31;;;;;;;34.78;24.33;;;1.70;92.50;;;;;;5092458;28;20056;-77
2020/12/30 04:38:57;;;;;;;34.97;23.88;;;1.80;92.50;;;;;;5097659;28;20497;-79
2020/12/30 04:41:31;;;;;;;39.25;24.02;;;1.80;92.60;;;;;;5084776;28;20038;-79
2020/12/30 04:43:59;;;;;;;37.30;24.52;;;1.70;92.60;;;;;;5072575;28;20044;-80
2020/12/30 04:46:26;;;;;;;37.55;25.00;;;1.80;92.70;;;;;;5091803;28;20065;-80
2020/12/30 04:48:52;;;;;;;38.10;25.80;;;1.80;92.70;;;;;;5093316;28;20071;-81
2020/12/30 04:51:19;;;;;;;37.05;25.00;;;1.90;92.80;;;;;;5090530;28;20060;-80
2020/12/30 04:53:48;;;;;;;37.40;25.83;;;1.90;92.80;;;;;;5095657;28;20411;-78
2020/12/30 04:56:16;;;;;;;37.08;25.15;;;1.90;92.90;;;;;;5092212;28;20035;-78
2020/12/30 04:58:43;;;;;;;35.40;25.48;;;2.00;92.90;;;;;;5093580;28;20074;-80
2020/12/30 05:01:17;;;;;;;37.70;23.98;;;2.00;92.90;;;;;;5077574;28;20057;-78
2020/12/30 05:03:45;;;;;;;34.53;24.43;;;2.00;92.90;;;;;;5093568;28;20069;-77
2020/12/30 05:06:13;;;;;;;32.70;23.23;;;2.00;92.90;;;;;;5091818;28;20043;-77
2020/12/30 05:08:39;;;;;;;37.72;23.70;;;2.00;92.80;;;;;;5082980;28;20399;-78
2020/12/30 05:11:05;;;;;;;36.78;25.42;;;1.90;92.80;;;;;;5074536;28;20053;-78
2020/12/30 05:13:31;;;;;;;39.10;25.83;;;1.80;92.80;;;;;;5104006;28;20040;-79
2020/12/30 05:15:59;;;;;;;39.28;25.55;;;1.80;92.80;;;;;;5098449;28;20492;-77
2020/12/30 05:18:25;;;;;;;39.30;25.38;;;1.80;92.90;;;;;;5099581;28;20534;-77
2020/12/30 05:20:50;;;;;;;39.70;25.00;;;1.80;92.80;;;;;;5100593;28;20177;-78
2020/12/30 05:23:16;;;;;;;39.63;26.05;;;1.80;92.80;;;;;;5099527;28;20035;-78
2020/12/30 05:25:44;;;;;;;38.08;26.25;;;1.80;92.80;;;;;;5093890;28;20119;-78
2020/12/30 05:28:12;;;;;;;39.42;25.70;;;1.70;92.90;;;;;;5068169;28;20530;-81
2020/12/30 05:30:40;;;;;;;41.78;26.85;;;1.80;93.00;;;;;;5096002;28;20039;-77
2020/12/30 05:33:06;;;;;;;39.25;25.67;;;1.80;93.00;;;;;;5098643;28;20028;-78
2020/12/30 05:35:33;;;;;;;39.03;25.88;;;1.80;93.10;;;;;;5089411;28;20092;-77
2020/12/30 05:38:00;;;;;;;40.47;26.40;;;1.90;93.20;;;;;;5099755;28;20058;-77
2020/12/30 05:40:31;;;;;;;38.70;25.67;;;1.90;93.30;;;;;;5093393;28;20067;-77
2020/12/30 05:43:16;;;;;;;40.85;26.17;;;2.00;93.30;;;;;;5104307;28;20039;-78
2020/12/30 05:45:49;;;;;;;;;;;2.00;93.30;;;;;;5091054;28;21476;-77
2020/12/30 05:48:16;;;;;;;39.17;24.90;;;2.10;93.30;;;;;;5094209;28;19908;-78
2020/12/30 05:50:51;;;;;;;42.78;26.83;;;2.10;93.40;;;;;;5074070;28;20024;-78
2020/12/30 05:53:17;;;;;;;40.85;25.20;;;2.10;93.40;;;;;;5093293;28;20032;-77
2020/12/30 05:55:43;;;;;;;45.00;27.60;;;2.20;93.50;;;;;;5079700;28;20036;-77
2020/12/30 05:58:13;;;;;;;47.42;27.58;;;2.30;93.50;;;;;;5090955;28;20119;-77
2020/12/30 06:00:39;;;;;;;43.05;27.33;;;2.40;93.40;;;;;;5102068;28;20078;-77
2020/12/30 06:03:05;;;;;;;42.85;26.58;;;2.40;93.40;;;;;;5094461;28;20059;-77
2020/12/30 06:05:30;;;;;;;42.55;25.90;;;2.50;93.50;;;;;;5094573;28;20030;-78
2020/12/30 06:07:56;;;;;;;42.17;26.23;;;2.60;93.60;;;;;;5095122;28;20074;-81
2020/12/30 06:10:23;;;;;;;45.13;28.00;;;2.50;93.50;;;;;;5079556;28;20084;-80
2020/12/30 06:12:53;;;;;;;41.85;27.17;;;2.50;93.50;;;;;;5077616;28;20032;-79
2020/12/30 06:15:27;;;;;;;44.13;28.10;;;2.50;93.50;;;;;;5096787;28;20028;-77
2020/12/30 06:18:07;;;;;;;44.55;26.48;;;2.60;93.50;;;;;;5080789;28;20032;-78
2020/12/30 06:20:37;;;;;;;40.65;25.77;;;2.60;93.50;;;;;;5093150;28;20036;-78
2020/12/30 06:23:12;;;;;;;44.83;27.20;;;2.60;93.50;;;;;;5088923;28;20142;-80
2020/12/30 06:25:39;;;;;;;43.30;27.42;;;2.60;93.50;;;;;;5096182;28;20042;-77
2020/12/30 06:28:13;;;;;;;44.67;27.98;;;2.60;93.50;;;;;;5074366;28;20087;-78
2020/12/30 06:30:41;;;;;;;40.80;25.20;;;2.60;93.50;;;;;;5096581;28;20032;-78
2020/12/30 06:33:08;;;;;;;41.78;25.75;;;2.70;93.50;;;;;;5075098;28;20060;-78
2020/12/30 06:35:35;;;;;;;41.72;25.95;;;2.70;93.60;;;;;;5096374;28;20032;-78
2020/12/30 06:38:40;;;;;;;41.95;26.05;;;2.80;93.60;;;;;;5094122;28;20038;-79
2020/12/30 06:41:07;;;;;;;43.80;26.15;;;2.80;93.60;;;;;;5022160;28;20033;-78
2020/12/30 06:43:46;;;;;;;38.83;24.52;;;2.80;93.70;;;;;;5077746;28;20032;-77
2020/12/30 06:46:21;;;;;;;39.28;24.17;;;2.90;93.70;;;;;;5076749;28;20039;-77
2020/12/30 06:48:55;;;;;;;40.53;24.25;;;3.00;93.60;;;;;;5098981;28;20450;-77
2020/12/30 06:51:21;;;;;;;39.75;24.58;;;3.10;93.50;;;;;;5090399;28;20032;-77
2020/12/30 06:53:51;;;;;;;41.13;24.27;;;3.10;93.40;;;;;;5080716;28;20028;-81
2020/12/30 06:56:35;;;;;;;37.80;24.15;;;3.10;93.40;;;;;;5088009;28;20489;-79
2020/12/30 06:59:01;;;;;;;38.67;24.70;;;3.10;93.40;;;;;;5076268;28;20064;-78
2020/12/30 07:01:27;;;;;;;44.75;25.00;;;3.10;93.50;;;;;;5097250;28;20056;-78
2020/12/30 07:03:52;;;;;;;39.80;24.02;;;3.10;93.40;;;;;;5080186;28;20481;-78
2020/12/30 07:06:22;;;;;;;41.08;24.90;;;3.20;93.40;;;;;;5089230;28;20486;-79
2020/12/30 07:08:48;;;;;;;38.65;24.23;;;3.20;93.40;;;;;;5076044;28;20020;-78
2020/12/30 07:11:39;;;;;;;42.72;26.42;;;3.20;93.40;;;;;;5090088;28;20020;-78
2020/12/30 07:14:13;;;;;;;43.40;26.45;;;3.30;93.40;;;;;;5076470;28;20079;-78
2020/12/30 07:16:40;;;;;;;39.55;24.75;;;3.30;93.40;;;;;;5087462;28;20074;-79
2020/12/30 07:19:10;;;;;;;36.88;24.05;;;3.40;93.40;;;;;;5079722;28;20461;-78
2020/12/30 07:21:52;;;;;;;41.63;25.70;;;3.40;93.40;;;;;;5066959;28;20036;-79
2020/12/30 07:24:23;;;;;;;40.78;24.80;;;3.40;93.40;;;;;;5089672;28;20036;-79
2020/12/30 07:26:52;;;;;;;43.47;25.55;;;3.40;93.30;;;;;;5095454;28;20158;-79
2020/12/30 07:29:18;;;;;;;44.25;26.48;;;3.40;93.40;;;;;;5068803;28;20024;-79
2020/12/30 07:31:50;;;;;;;42.00;25.88;;;3.50;93.30;;;;;;5088326;28;20028;-79
2020/12/30 07:34:24;;;;;;;43.15;25.48;;;3.40;93.30;;;;;;5095984;28;20048;-78
2020/12/30 07:36:50;;;;;;;40.05;25.27;;;3.50;93.40;;;;;;5092186;28;20085;-78
2020/12/30 07:39:23;;;;;;;40.92;25.55;;;3.50;93.30;;;;;;5092118;28;20024;-78
2020/12/30 07:41:48;;;;;;;42.90;24.42;;;3.50;93.30;;;;;;5095767;28;20028;-77
2020/12/30 07:44:14;;;;;;;37.55;24.30;;;3.60;93.30;;;;;;5102746;28;20101;-78
2020/12/30 07:46:41;;;;;;;39.00;24.73;;;3.60;93.20;;;;;;5092789;28;20020;-78
2020/12/30 07:49:20;;;;;;;42.33;24.95;;;3.60;93.20;;;;;;5079148;28;20058;-79
2020/12/30 07:51:47;;;;;;;38.50;24.10;;;3.50;93.20;;;;;;5096783;28;20035;-78
2020/12/30 07:54:13;;;;;;;42.55;25.48;;;3.50;93.20;;;;;;5073632;28;20071;-79
2020/12/30 07:56:39;;;;;;;38.50;24.10;;;3.50;93.20;;;;;;5080539;28;20473;-79
2020/12/30 07:59:05;;;;;;;42.20;25.90;;;3.40;93.20;;;;;;5093257;28;20023;-79
2020/12/30 08:01:30;;;;;;;40.28;25.60;;;3.30;93.30;;;;;;5095749;28;20028;-78
2020/12/30 08:04:06;;;;;;;42.03;25.92;;;3.40;93.40;;;;;;5090611;28;20032;-78
2020/12/30 08:06:44;;;;;;;40.72;25.00;;;3.40;93.40;;;;;;5092327;28;20039;-78
2020/12/30 08:09:10;;;;;;;39.45;24.65;;;3.40;93.40;;;;;;5086109;28;20031;-76
2020/12/30 08:11:36;;;;;;;43.53;24.70;;;3.40;93.50;;;;;;5077731;28;20040;-76
2020/12/30 08:14:08;;;;;;;34.08;22.45;;;3.40;93.50;;;;;;5088726;28;20553;-76
2020/12/30 08:16:34;;;;;;;39.63;23.85;;;3.40;93.50;;;;;;5096554;28;20065;-76
2020/12/30 08:19:00;;;;;;;37.55;23.95;;;3.50;93.40;;;;;;5091879;28;20164;-77
2020/12/30 08:21:26;;;;;;;38.38;24.20;;;3.50;93.40;;;;;;5073726;28;20131;-77
2020/12/30 08:24:10;;;;;;;37.15;23.10;;;3.50;93.30;;;;;;5078891;28;20044;-78
2020/12/30 08:26:36;;;;;;;38.70;23.60;;;3.60;93.20;;;;;;5091608;28;20023;-77
2020/12/30 08:29:03;;;;;;;39.08;23.15;;;3.60;93.00;;;;;;5089527;28;20498;-78
2020/12/30 08:31:41;;;;;;;36.55;22.95;;;3.60;93.00;;;;;;5080802;28;20413;-76
2020/12/30 08:34:10;;;;;;;35.55;24.00;;;3.60;93.00;;;;;;5080518;28;20094;-78
2020/12/30 08:36:40;;;;;;;33.70;22.63;;;3.70;92.90;;;;;;5098157;28;20048;-80
2020/12/30 08:39:08;;;;;;;41.40;24.30;;;3.80;92.70;;;;;;5079131;28;20032;-77
2020/12/30 08:41:49;;;;;;;37.53;23.95;;;3.80;92.60;;;;;;5094360;28;20035;-77
2020/12/30 08:44:19;;;;;;;34.88;23.00;;;3.80;92.50;;;;;;5097109;28;20027;-77
2020/12/30 08:46:49;;;;;;;32.55;22.13;;;3.90;92.30;;;;;;5070715;28;20161;-77
2020/12/30 08:49:19;;;;;;;33.50;22.25;;;4.00;92.30;;;;;;5080003;28;20058;-77
2020/12/30 08:51:45;;;;;;;34.28;22.20;;;4.10;92.10;;;;;;5096182;28;20024;-77
2020/12/30 08:54:19;;;;;;;33.65;22.05;;;4.10;91.80;;;;;;5092130;28;20563;-77
2020/12/30 08:56:46;;;;;;;34.35;21.90;;;4.20;91.60;;;;;;5093817;28;20047;-77
2020/12/30 08:59:22;;;;;;;32.40;21.52;;;4.30;91.50;;;;;;5093829;28;20112;-78
2020/12/30 09:01:48;;;;;;;34.00;20.65;;;4.40;91.20;;;;;;5101133;28;20044;-77
2020/12/30 09:04:14;;;;;;;32.67;21.98;;;4.40;91.10;;;;;;5096513;28;20124;-77
2020/12/30 09:06:40;;;;;;;33.03;21.60;;;4.30;91.10;;;;;;5096957;28;20458;-77
2020/12/30 09:09:19;;;;;;;30.98;20.42;;;4.40;91.10;;;;;;5079207;28;20039;-77
2020/12/30 09:11:49;;;;;;;34.15;21.13;;;4.30;91.10;;;;;;5097088;28;20028;-79
2020/12/30 09:14:15;;;;;;;30.88;20.30;;;4.30;91.10;;;;;;5083233;28;20044;-80
2020/12/30 09:17:04;;;;;;;31.20;19.45;;;4.40;91.10;;;;;;5079212;28;20081;-77
2020/12/30 09:19:30;;;;;;;29.75;20.23;;;4.40;91.20;;;;;;5078018;28;20092;-77
2020/12/30 09:22:07;;;;;;;30.63;21.38;;;4.40;90.90;;;;;;5103917;28;20486;-77
2020/12/30 09:24:43;;;;;;;31.60;19.27;;;4.50;90.90;;;;;;5105181;28;20051;-78
2020/12/30 09:27:20;;;;;;;30.42;19.20;;;4.50;90.80;;;;;;5091256;28;20117;-78
2020/12/30 09:30:04;;;;;;;31.17;20.02;;;4.50;90.80;;;;;;5089235;28;20115;-78
2020/12/30 09:32:29;;;;;;;28.60;18.63;;;4.50;90.90;;;;;;5079532;28;20032;-78
2020/12/30 09:35:05;;;;;;;26.58;18.23;;;4.60;90.70;;;;;;5092998;28;20098;-78
2020/12/30 09:37:30;;;;;;;27.85;18.98;;;4.60;90.40;;;;;;5084951;28;20044;-78
2020/12/30 09:40:13;;;;;;;26.92;17.70;;;4.60;90.10;;;;;;5081893;28;20412;-77
2020/12/30 09:42:41;;;;;;;27.73;18.58;;;4.60;90.00;;;;;;5102047;28;20114;-81
2020/12/30 09:45:09;;;;;;;25.67;18.23;;;4.60;89.80;;;;;;5095644;28;20032;-78
2020/12/30 09:47:35;;;;;;;30.38;19.75;;;4.70;89.50;;;;;;5092198;28;20024;-73
2020/12/30 09:50:02;;;;;;;28.38;17.77;;;4.70;89.40;;;;;;5095637;28;20039;-74
2020/12/30 09:52:34;;;;;;;29.65;17.70;;;4.80;89.40;;;;;;5091665;28;20516;-74
2020/12/30 09:54:59;;;;;;;27.33;17.27;;;4.80;89.20;;;;;;5094812;28;20047;-73
2020/12/30 09:57:25;;;;;;;24.20;16.65;;;4.90;89.10;;;;;;5096562;28;20512;-74
2020/12/30 09:59:50;;;;;;;24.83;17.08;;;5.00;88.80;;;;;;5097364;28;20027;-74
2020/12/30 10:02:16;;;;;;;28.40;19.23;;;5.00;88.20;;;;;;5095098;28;20126;-74
2020/12/30 10:04:42;;;;;;;33.92;22.88;;;5.00;88.00;;;;;;5093714;28;20107;-74
2020/12/30 10:07:07;;;;;;;37.25;25.58;;;5.00;87.70;;;;;;5092733;28;20023;-74
2020/12/30 10:09:33;;;;;;;38.20;27.83;;;5.10;88.10;;;;;;5098657;28;20032;-73
2020/12/30 10:11:59;;;;;;;36.28;29.48;;;5.30;88.10;;;;;;5097849;28;20426;-73
2020/12/30 10:14:24;;;;;;;39.92;29.60;;;5.40;86.90;;;;;;5076684;28;20044;-73
2020/12/30 10:16:50;;;;;;;35.40;26.83;;;5.60;87.00;;;;;;5096336;28;20047;-73
2020/12/30 10:19:16;;;;;;;31.88;24.73;;;5.60;86.30;;;;;;5081862;28;20024;-73
2020/12/30 10:21:42;;;;;;;37.55;25.45;;;5.70;85.70;;;;;;5095211;28;20024;-72
2020/12/30 10:24:07;;;;;;;30.33;22.67;;;5.70;85.20;;;;;;5095156;28;20446;-72
2020/12/30 10:26:33;;;;;;;31.33;20.85;;;5.80;85.80;;;;;;5095423;28;20032;-74
2020/12/30 10:28:59;;;;;;;28.13;19.10;;;5.80;85.20;;;;;;5091363;28;20097;-73
2020/12/30 10:31:25;;;;;;;28.27;19.63;;;5.80;85.20;;;;;;5093363;28;20031;-72
2020/12/30 10:33:51;;;;;;;28.17;18.88;;;5.70;85.40;;;;;;5088048;28;20735;-73
2020/12/30 10:36:17;;;;;;;27.52;18.42;;;5.70;85.70;;;;;;5098945;28;20028;-72
2020/12/30 10:38:42;;;;;;;27.73;17.77;;;5.70;85.80;;;;;;5099992;28;20093;-72
2020/12/30 10:41:13;;;;;;;27.35;17.23;;;5.70;85.90;;;;;;5093342;28;20028;-72
2020/12/30 10:43:40;;;;;;;24.65;16.70;;;5.70;85.90;;;;;;5096943;28;20032;-74
2020/12/30 10:46:11;;;;;;;23.02;16.10;;;5.70;86.10;;;;;;5091154;28;20024;-73
2020/12/30 10:48:37;;;;;;;25.20;17.10;;;5.80;85.70;;;;;;5077896;28;20366;-73
2020/12/30 10:51:02;;;;;;;26.08;15.93;;;5.80;85.50;;;;;;5094337;28;20119;-74
2020/12/30 10:53:28;;;;;;;24.17;16.42;;;5.80;85.60;;;;;;5089413;28;20121;-73
2020/12/30 10:55:54;;;;;;;23.42;17.02;;;5.80;85.40;;;;;;5090898;28;20835;-74
2020/12/30 10:58:19;;;;;;;24.70;16.42;;;5.80;85.60;;;;;;5093470;28;20449;-73
2020/12/30 11:00:45;;;;;;;25.90;17.50;;;5.80;85.40;;;;;;5096315;28;20036;-74
2020/12/30 11:03:10;;;;;;;25.98;17.35;;;5.90;85.70;;;;;;5092840;28;20023;-74
2020/12/30 11:05:36;;;;;;;25.73;18.00;;;5.80;85.50;;;;;;5093542;28;20048;-73
2020/12/30 11:08:02;;;;;;;25.92;17.27;;;5.80;85.90;;;;;;5094882;28;20051;-72
2020/12/30 11:10:27;;;;;;;22.65;16.40;;;5.90;85.40;;;;;;5095203;28;20028;-73
2020/12/30 11:12:53;;;;;;;26.20;17.13;;;6.00;85.20;;;;;;5097673;28;20077;-74
2020/12/30 11:15:19;;;;;;;24.45;16.83;;;6.00;85.30;;;;;;5093495;28;20032;-73
2020/12/30 11:17:44;;;;;;;24.80;17.10;;;6.00;85.40;;;;;;5099896;28;20078;-73
2020/12/30 11:20:11;;;;;;;27.67;16.20;;;6.00;85.40;;;;;;5093679;28;20040;-74
2020/12/30 11:22:37;;;;;;;27.55;17.00;;;6.00;84.90;;;;;;5097349;28;20122;-74
2020/12/30 11:25:02;;;;;;;29.23;17.88;;;5.90;85.10;;;;;;5093455;28;20119;-74
2020/12/30 11:27:28;;;;;;;25.83;17.00;;;5.90;85.20;;;;;;5093735;28;20043;-75
2020/12/30 11:29:54;;;;;;;27.15;17.25;;;5.90;85.20;;;;;;5092008;28;20030;-74
2020/12/30 11:32:19;;;;;;;28.80;16.98;;;5.80;85.70;;;;;;5091863;28;20026;-73
2020/12/30 11:34:45;;;;;;;28.15;17.45;;;5.90;85.70;;;;;;5098953;28;20045;-73
2020/12/30 11:37:10;;;;;;;26.75;17.05;;;5.90;86.00;;;;;;5072026;28;20054;-73
2020/12/30 11:39:36;;;;;;;24.52;16.10;;;5.90;86.00;;;;;;5068546;28;20467;-74
2020/12/30 11:42:02;;;;;;;26.85;17.27;;;5.90;85.90;;;;;;5074251;28;20043;-71
2020/12/30 11:44:27;;;;;;;23.92;16.23;;;5.90;86.00;;;;;;5069507;28;20039;-73
2020/12/30 11:46:53;;;;;;;24.88;16.83;;;5.90;85.90;;;;;;5070409;28;20070;-72
2020/12/30 11:49:19;;;;;;;26.60;15.88;;;6.00;86.10;;;;;;5064488;28;20098;-74
2020/12/30 11:51:45;;;;;;;28.63;17.58;;;6.10;85.80;;;;;;5070797;28;20032;-73
2020/12/30 11:54:11;;;;;;;24.88;16.42;;;6.30;85.70;;;;;;5075577;28;20062;-75
2020/12/30 11:56:37;;;;;;;24.02;16.38;;;6.30;85.30;;;;;;5071785;28;20512;-74
2020/12/30 11:59:02;;;;;;;23.38;15.52;;;6.30;84.60;;;;;;5072746;28;20536;-74
2020/12/30 12:01:32;;;;;;;24.95;16.17;;;6.40;84.70;;;;;;5067499;28;20048;-74
2020/12/30 12:03:59;;;;;;;24.98;15.60;;;6.40;84.40;;;;;;5072949;28;20060;-75
2020/12/30 12:06:26;;;;;;;25.77;15.85;;;6.50;84.10;;;;;;5078289;28;20344;-75
2020/12/30 12:08:51;;;;;;;24.60;14.50;;;6.60;84.00;;;;;;5079380;28;20111;-75
2020/12/30 12:11:17;;;;;;;26.52;16.52;;;6.60;83.90;;;;;;5089168;28;20483;-75
2020/12/30 12:13:43;;;;;;;25.45;16.65;;;6.60;83.70;;;;;;5074363;28;20052;-75
2020/12/30 12:16:11;;;;;;;23.42;15.23;;;6.60;83.50;;;;;;5076355;28;20051;-77
2020/12/30 12:18:37;;;;;;;22.20;15.10;;;6.60;83.40;;;;;;5074856;28;20020;-75
2020/12/30 12:21:04;;;;;;;24.33;16.38;;;6.60;83.10;;;;;;5088676;28;20085;-76
2020/12/30 12:23:30;;;;;;;24.00;15.73;;;6.70;83.00;;;;;;5073820;28;20602;-76
2020/12/30 12:25:55;;;;;;;22.15;14.20;;;6.60;82.40;;;;;;5078287;28;20103;-75
2020/12/30 12:28:56;;;;;;;20.90;14.45;;;6.70;82.60;;;;;;5075809;28;20024;-75
2020/12/30 12:31:22;;;;;;;26.33;19.05;;;6.70;82.40;;;;;;5074288;28;20534;-75
2020/12/30 12:33:47;;;;;;;22.90;15.95;;;6.80;82.90;;;;;;5079578;28;20038;-75
2020/12/30 12:36:15;;;;;;;23.42;15.27;;;6.80;82.40;;;;;;5077058;28;20036;-76
2020/12/30 12:38:41;;;;;;;23.08;15.35;;;6.70;82.10;;;;;;5092162;28;20352;-73
2020/12/30 12:41:07;;;;;;;30.85;16.30;;;6.60;82.70;;;;;;5094332;28;20344;-78